createdAt,value
2022-10-09T00:00:46.970Z,102523.53
2022-10-09T00:03:17.169Z,102530.78
2022-10-09T00:05:46.634Z,102521.53
2022-10-09T00:08:14.371Z,102515.56
2022-10-09T00:10:43.049Z,102522.59
2022-10-09T00:13:10.970Z,102524.34
2022-10-09T00:15:39.495Z,102515.38
2022-10-09T00:18:07.538Z,102522.84
2022-10-09T00:20:37.574Z,102529.94
2022-10-09T00:23:07.129Z,102527.09
2022-10-09T00:25:35.760Z,102521.25
2022-10-09T00:28:05.301Z,102526.53
2022-10-09T00:30:33.088Z,102527.19
2022-10-09T00:33:00.718Z,102524.13
2022-10-09T00:35:28.374Z,102518.72
2022-10-09T00:37:55.995Z,102517.16
2022-10-09T00:40:25.792Z,102520.25
2022-10-09T00:42:57.118Z,102520.25
2022-10-09T00:45:27.527Z,102515.53
2022-10-09T00:47:58.585Z,102513.44
2022-10-09T00:50:31.944Z,102514.97
2022-10-09T00:53:01.197Z,102516.47
2022-10-09T00:55:31.321Z,102513.16
2022-10-09T00:58:01.153Z,102511.97
2022-10-09T01:00:29.142Z,102517.75
2022-10-09T01:02:56.814Z,102521.09
2022-10-09T01:05:31.454Z,102515.91
2022-10-09T01:08:08.330Z,102510.41
2022-10-09T01:10:46.742Z,102512.94
2022-10-09T01:13:23.936Z,102516.03
2022-10-09T01:15:55.717Z,102511.75
2022-10-09T01:18:28.918Z,102513.38
2022-10-09T01:21:02.382Z,102514.59
2022-10-09T01:23:42.622Z,102508.53
2022-10-09T01:26:26.480Z,102501.66
2022-10-09T01:28:58.647Z,102503.25
2022-10-09T01:31:30.723Z,102491.56
2022-10-09T01:34:00.676Z,102495.13
2022-10-09T01:36:31.255Z,102488.22
2022-10-09T01:39:01.833Z,102487.66
2022-10-09T01:41:30.509Z,102486.63
2022-10-09T01:43:59.513Z,102487.31
2022-10-09T01:46:30.532Z,102482.50
2022-10-09T01:49:11.166Z,102486.38
2022-10-09T01:51:45.821Z,102480.53
2022-10-09T01:54:15.893Z,102481.69
2022-10-09T01:56:48.867Z,102475.03
2022-10-09T01:59:19.828Z,102480.75
2022-10-09T02:01:48.428Z,102472.94
2022-10-09T02:04:18.022Z,102478.44
2022-10-09T02:06:47.858Z,102467.91
2022-10-09T02:09:18.145Z,102469.97
2022-10-09T02:11:52.609Z,102472.03
2022-10-09T02:14:21.784Z,102465.13
2022-10-09T02:16:56.253Z,102466.41
2022-10-09T02:19:28.015Z,102459.97
2022-10-09T02:21:59.267Z,102462.81
2022-10-09T02:24:27.198Z,102451.13
2022-10-09T02:26:57.393Z,102448.94
2022-10-09T02:29:26.864Z,102451.56
2022-10-09T02:31:54.481Z,102450.56
2022-10-09T02:34:22.571Z,102441.63
2022-10-09T02:36:50.479Z,102449.53
2022-10-09T02:39:18.490Z,102441.25
2022-10-09T02:41:46.157Z,102448.84
2022-10-09T02:44:13.786Z,102444.81
2022-10-09T02:46:42.833Z,102446.06
2022-10-09T02:49:10.572Z,102447.53
2022-10-09T02:51:38.335Z,102446.16
2022-10-09T02:54:06.347Z,102449.00
2022-10-09T02:56:38.556Z,102445.81
2022-10-09T02:59:06.804Z,102438.34
2022-10-09T03:01:34.587Z,102436.28
2022-10-09T03:04:03.850Z,102441.91
2022-10-09T03:06:31.833Z,102440.88
2022-10-09T03:08:59.554Z,102448.56
2022-10-09T03:11:27.891Z,102446.16
2022-10-09T03:13:55.645Z,102443.16
2022-10-09T03:16:26.204Z,102440.97
2022-10-09T03:18:54.899Z,102437.44
2022-10-09T03:21:25.904Z,102445.53
2022-10-09T03:23:54.303Z,102440.75
2022-10-09T03:26:23.819Z,102441.19
2022-10-09T03:28:53.571Z,102437.97
2022-10-09T03:31:47.034Z,102436.34
2022-10-09T03:34:11.644Z,102439.22
2022-10-09T03:36:41.008Z,102438.84
2022-10-09T03:39:09.013Z,102433.00
2022-10-09T03:41:36.699Z,102436.06
2022-10-09T03:44:04.522Z,102436.97
2022-10-09T03:46:32.270Z,102439.69
2022-10-09T03:48:59.987Z,102440.81
2022-10-09T03:51:27.671Z,102436.44
2022-10-09T03:53:56.710Z,102445.00
2022-10-09T03:56:26.873Z,102444.63
2022-10-09T03:58:54.505Z,102436.16
2022-10-09T04:01:22.322Z,102443.00
2022-10-09T04:03:50.041Z,102447.09
2022-10-09T04:06:17.718Z,102450.31
2022-10-09T04:08:45.338Z,102455.97
2022-10-09T04:11:14.374Z,102449.66
2022-10-09T04:13:42.059Z,102448.06
2022-10-09T04:16:12.758Z,102455.97
2022-10-09T04:18:40.917Z,102464.06
2022-10-09T04:21:08.830Z,102464.28
2022-10-09T04:23:36.876Z,102456.81
2022-10-09T04:26:04.574Z,102461.31
2022-10-09T04:28:33.741Z,102449.16
2022-10-09T04:31:01.658Z,102452.22
2022-10-09T04:33:29.442Z,102441.94
2022-10-09T04:35:57.954Z,102439.72
2022-10-09T04:38:26.494Z,102438.34
2022-10-09T04:40:57.955Z,102438.41
2022-10-09T04:43:25.953Z,102438.13
2022-10-09T04:45:54.990Z,102439.00
2022-10-09T04:48:23.319Z,102430.16
2022-10-09T04:50:50.848Z,102432.00
2022-10-09T04:53:18.757Z,102429.56
2022-10-09T04:55:46.788Z,102422.47
2022-10-09T04:58:15.209Z,102429.56
2022-10-09T05:00:44.165Z,102422.56
2022-10-09T05:03:13.532Z,102426.25
2022-10-09T05:05:41.233Z,102428.53
2022-10-09T05:08:08.920Z,102434.81
2022-10-09T05:10:36.580Z,102432.19
2022-10-09T05:13:04.229Z,102429.97
2022-10-09T05:15:32.192Z,102429.38
2022-10-09T05:17:59.934Z,102416.25
2022-10-09T05:20:29.533Z,102416.00
2022-10-09T05:22:57.162Z,102412.59
2022-10-09T05:25:24.767Z,102419.91
2022-10-09T05:27:52.889Z,102414.66
2022-10-09T05:30:20.519Z,102419.91
2022-10-09T05:32:48.346Z,102422.38
2022-10-09T05:35:16.321Z,102427.47
2022-10-09T05:37:46.559Z,102418.44
2022-10-09T05:40:14.215Z,102423.88
2022-10-09T05:42:41.918Z,102410.72
2022-10-09T05:45:11.365Z,102422.88
2022-10-09T05:47:39.150Z,102418.84
2022-10-09T05:50:07.498Z,102419.66
2022-10-09T05:52:36.156Z,102425.09
2022-10-09T05:55:05.741Z,102420.84
2022-10-09T05:57:33.481Z,102423.47
2022-10-09T06:00:01.173Z,102430.78
2022-10-09T06:02:28.801Z,102425.72
2022-10-09T06:04:56.521Z,102429.59
2022-10-09T06:07:24.137Z,102427.75
2022-10-09T06:09:51.916Z,102429.00
2022-10-09T06:12:20.907Z,102428.00
2022-10-09T06:14:48.565Z,102433.84
2022-10-09T06:17:16.261Z,102445.94
2022-10-09T06:19:43.926Z,102441.31
2022-10-09T06:22:11.594Z,102443.94
2022-10-09T06:24:39.285Z,102446.34
2022-10-09T06:27:06.965Z,102444.31
2022-10-09T06:29:35.966Z,102445.72
2022-10-09T06:32:03.569Z,102448.69
2022-10-09T06:34:31.257Z,102447.47
2022-10-09T06:36:58.933Z,102447.84
2022-10-09T06:39:27.214Z,102445.00
2022-10-09T06:41:54.701Z,102441.94
2022-10-09T06:44:22.307Z,102439.91
2022-10-09T06:46:51.332Z,102440.06
2022-10-09T06:49:19.042Z,102432.75
2022-10-09T06:51:46.733Z,102439.19
2022-10-09T06:54:16.525Z,102439.56
2022-10-09T06:56:44.530Z,102441.31
2022-10-09T06:59:12.376Z,102448.72
2022-10-09T07:01:40.107Z,102452.66
2022-10-09T07:04:12.659Z,102457.41
2022-10-09T07:07:34.156Z,102447.63
2022-10-09T07:09:34.403Z,102449.75
2022-10-09T07:12:02.035Z,102450.28
2022-10-09T07:14:30.616Z,102449.72
2022-10-09T07:16:58.350Z,102452.63
2022-10-09T07:19:27.362Z,102454.50
2022-10-09T07:21:55.033Z,102446.22
2022-10-09T07:24:24.625Z,102456.09
2022-10-09T07:26:53.478Z,102450.78
2022-10-09T07:29:21.099Z,102447.25
2022-10-09T07:31:49.840Z,102440.72
2022-10-09T07:34:17.509Z,102446.38
2022-10-09T07:36:46.513Z,102452.53
2022-10-09T07:39:14.285Z,102447.06
2022-10-09T07:41:42.121Z,102441.66
2022-10-09T07:44:10.277Z,102443.41
2022-10-09T07:46:37.969Z,102445.19
2022-10-09T07:49:05.812Z,102445.00
2022-10-09T07:51:33.791Z,102445.34
2022-10-09T07:54:02.924Z,102442.97
2022-10-09T07:56:32.747Z,102452.75
2022-10-09T07:59:02.466Z,102441.63
2022-10-09T08:01:31.464Z,102450.84
2022-10-09T08:03:59.916Z,102441.28
2022-10-09T08:06:28.207Z,102447.91
2022-10-09T08:08:57.902Z,102447.06
2022-10-09T08:11:28.942Z,102439.81
2022-10-09T08:13:57.061Z,102442.88
2022-10-09T08:16:25.851Z,102432.41
2022-10-09T08:18:56.223Z,102435.81
2022-10-09T08:21:23.962Z,102434.19
2022-10-09T08:23:55.035Z,102440.16
2022-10-09T08:26:24.416Z,102435.03
2022-10-09T08:28:54.951Z,102442.13
2022-10-09T08:31:23.785Z,102432.94
2022-10-09T08:33:53.863Z,102435.97
2022-10-09T08:36:21.954Z,102430.22
2022-10-09T08:38:49.658Z,102416.97
2022-10-09T08:41:27.094Z,102415.72
2022-10-09T08:44:03.825Z,102414.22
2022-10-09T08:46:42.424Z,102413.47
2022-10-09T08:49:21.462Z,102416.66
2022-10-09T08:51:49.636Z,102420.69
2022-10-09T08:54:25.859Z,102416.41
2022-10-09T08:56:54.005Z,102409.19
2022-10-09T08:59:23.060Z,102402.53
2022-10-09T09:02:01.862Z,102408.88
2022-10-09T09:04:46.060Z,102406.16
2022-10-09T09:07:25.432Z,102397.56
2022-10-09T09:09:57.710Z,102391.09
2022-10-09T09:12:34.948Z,102389.63
2022-10-09T09:15:22.891Z,102397.78
2022-10-09T09:17:56.322Z,102390.25
2022-10-09T09:20:27.316Z,102389.31
2022-10-09T09:22:58.931Z,102381.69
2022-10-09T09:25:30.216Z,102377.69
2022-10-09T09:28:03.410Z,102375.84
2022-10-09T09:30:35.367Z,102375.09
2022-10-09T09:33:14.052Z,102369.84
2022-10-09T09:35:50.576Z,102368.63
2022-10-09T09:38:18.313Z,102369.53
2022-10-09T09:40:47.316Z,102371.00
2022-10-09T09:43:19.182Z,102375.88
2022-10-09T09:45:48.845Z,102357.28
2022-10-09T09:48:22.175Z,102369.94
2022-10-09T09:51:10.090Z,102357.53
2022-10-09T09:53:44.610Z,102353.88
2022-10-09T09:56:12.589Z,102350.31
2022-10-09T09:58:41.858Z,102341.47
2022-10-09T10:01:23.416Z,102345.25
2022-10-09T10:03:53.579Z,102333.09
2022-10-09T10:06:25.705Z,102325.03
2022-10-09T10:09:01.908Z,102326.66
2022-10-09T10:11:30.525Z,102330.50
2022-10-09T10:13:58.557Z,102323.06
2022-10-09T10:16:30.199Z,102326.63
2022-10-09T10:18:59.197Z,102321.25
2022-10-09T10:21:26.840Z,102321.78
2022-10-09T10:23:57.624Z,102316.34
2022-10-09T10:26:30.693Z,102314.56
2022-10-09T10:29:02.845Z,102315.41
2022-10-09T10:31:42.978Z,102308.78
2022-10-09T10:34:17.887Z,102297.75
2022-10-09T10:36:47.042Z,102299.66
2022-10-09T10:39:25.176Z,102298.09
2022-10-09T10:41:56.704Z,102285.72
2022-10-09T10:44:32.329Z,102290.91
2022-10-09T10:47:06.959Z,102284.41
2022-10-09T10:49:34.631Z,102283.00
2022-10-09T10:52:12.794Z,102281.41
2022-10-09T10:54:43.983Z,102278.59
2022-10-09T10:57:17.283Z,102269.59
2022-10-09T10:59:57.885Z,102265.28
2022-10-09T11:02:54.289Z,102269.25
2022-10-09T11:05:34.352Z,102262.00
2022-10-09T11:08:17.504Z,102260.09
2022-10-09T11:10:57.417Z,102260.44
2022-10-09T11:13:32.246Z,102252.81
2022-10-09T11:16:16.790Z,102248.53
2022-10-09T11:19:05.461Z,102244.69
2022-10-09T11:21:45.535Z,102244.31
2022-10-09T11:24:27.896Z,102230.84
2022-10-09T11:27:03.612Z,102233.88
2022-10-09T11:29:38.110Z,102230.69
2022-10-09T11:32:10.318Z,102223.88
2022-10-09T11:34:44.745Z,102220.91
2022-10-09T11:37:18.857Z,102214.25
2022-10-09T11:39:47.436Z,102215.56
2022-10-09T11:42:21.166Z,102203.44
2022-10-09T11:45:01.633Z,102201.72
2022-10-09T11:47:35.511Z,102208.16
2022-10-09T11:50:27.440Z,102188.88
2022-10-09T11:53:00.885Z,102184.66
2022-10-09T11:55:30.076Z,102174.50
2022-10-09T11:58:09.218Z,102169.84
2022-10-09T12:00:39.202Z,102162.97
2022-10-09T12:03:08.926Z,102169.69
2022-10-09T12:05:44.574Z,102173.00
2022-10-09T12:08:18.531Z,102164.59
2022-10-09T12:10:52.251Z,102160.50
2022-10-09T12:13:40.954Z,102150.63
2022-10-09T12:16:09.999Z,102134.84
2022-10-09T12:18:41.543Z,102137.06
2022-10-09T12:21:24.315Z,102132.47
2022-10-09T12:23:53.197Z,102128.94
2022-10-09T12:26:24.917Z,102122.22
2022-10-09T12:28:55.982Z,102109.44
2022-10-09T12:31:26.697Z,102112.16
2022-10-09T12:33:58.070Z,102102.25
2022-10-09T12:36:29.136Z,102098.91
2022-10-09T12:38:56.802Z,102100.28
2022-10-09T12:41:28.766Z,102100.97
2022-10-09T12:43:58.400Z,102086.25
2022-10-09T12:46:29.306Z,102075.25
2022-10-09T12:48:58.314Z,102079.81
2022-10-09T12:51:29.575Z,102067.41
2022-10-09T12:53:57.564Z,102057.00
2022-10-09T12:56:29.365Z,102065.44
2022-10-09T12:58:58.556Z,102057.94
2022-10-09T13:01:26.764Z,102056.44
2022-10-09T13:03:57.407Z,102047.06
2022-10-09T13:06:28.764Z,102043.84
2022-10-09T13:08:59.090Z,102030.66
2022-10-09T13:11:35.409Z,102029.50
2022-10-09T13:14:03.277Z,102025.94
2022-10-09T13:16:41.405Z,102028.69
2022-10-09T13:19:22.880Z,102026.34
2022-10-09T13:22:18.996Z,102012.59
2022-10-09T13:24:47.161Z,102012.59
2022-10-09T13:27:15.578Z,102002.41
2022-10-09T13:29:44.024Z,101997.22
2022-10-09T13:32:13.969Z,101995.91
2022-10-09T13:34:41.926Z,101986.59
2022-10-09T13:37:13.997Z,101985.28
2022-10-09T13:39:41.778Z,101982.31
2022-10-09T13:42:13.242Z,101977.22
2022-10-09T13:44:40.971Z,101976.56
2022-10-09T13:47:08.589Z,101970.75
2022-10-09T13:49:36.218Z,101971.91
2022-10-09T13:52:03.970Z,101963.50
2022-10-09T13:54:32.996Z,101965.47
2022-10-09T13:57:00.731Z,101959.25
2022-10-09T13:59:28.565Z,101957.56
2022-10-09T14:01:56.287Z,101949.78
2022-10-09T14:04:23.987Z,101948.72
2022-10-09T14:06:51.677Z,101954.22
2022-10-09T14:09:19.566Z,101950.19
2022-10-09T14:11:48.780Z,101941.91
2022-10-09T14:14:16.461Z,101940.41
2022-10-09T14:16:44.115Z,101927.09
2022-10-09T14:19:11.786Z,101919.50
2022-10-09T14:21:39.497Z,101922.53
2022-10-09T14:24:07.566Z,101915.66
2022-10-09T14:26:35.268Z,101917.59
2022-10-09T14:29:04.506Z,101911.50
2022-10-09T14:31:32.153Z,101913.13
2022-10-09T14:34:00.465Z,101905.75
2022-10-09T14:36:29.054Z,101905.03
2022-10-09T14:38:56.991Z,101887.97
2022-10-09T14:41:24.694Z,101889.84
2022-10-09T14:43:56.805Z,101886.13
2022-10-09T14:46:27.694Z,101879.28
2022-10-09T14:48:57.785Z,101883.66
2022-10-09T14:51:27.116Z,101874.84
2022-10-09T14:53:57.905Z,101872.69
2022-10-09T14:56:26.841Z,101862.47
2022-10-09T14:58:55.092Z,101857.78
2022-10-09T15:01:25.070Z,101858.28
2022-10-09T15:03:53.330Z,101862.69
2022-10-09T15:06:24.072Z,101849.75
2022-10-09T15:08:54.979Z,101847.25
2022-10-09T15:11:22.651Z,101841.53
2022-10-09T15:13:50.419Z,101850.53
2022-10-09T15:16:19.629Z,101843.84
2022-10-09T15:18:51.937Z,101840.53
2022-10-09T15:21:22.382Z,101834.59
2022-10-09T15:23:50.966Z,101841.16
2022-10-09T15:26:18.826Z,101829.25
2022-10-09T15:28:46.509Z,101827.22
2022-10-09T15:31:22.074Z,101831.59
2022-10-09T15:33:52.232Z,101819.91
2022-10-09T15:36:20.078Z,101816.03
2022-10-09T15:38:48.159Z,101803.25
2022-10-09T15:41:24.727Z,101803.28
2022-10-09T15:43:54.393Z,101799.13
2022-10-09T15:46:22.133Z,101797.56
2022-10-09T15:48:51.452Z,101802.72
2022-10-09T15:51:20.129Z,101792.44
2022-10-09T15:53:50.579Z,101795.16
2022-10-09T15:56:21.086Z,101787.97
2022-10-09T15:58:48.864Z,101782.34
2022-10-09T16:01:18.264Z,101776.19
2022-10-09T16:03:46.194Z,101776.56
2022-10-09T16:06:18.002Z,101767.00
2022-10-09T16:08:46.209Z,101759.91
2022-10-09T16:11:17.883Z,101755.88
2022-10-09T16:13:48.188Z,101755.00
2022-10-09T16:16:17.551Z,101757.78
2022-10-09T16:18:45.615Z,101750.94
2022-10-09T16:21:18.026Z,101753.09
2022-10-09T16:23:46.726Z,101749.38
2022-10-09T16:26:18.386Z,101747.13
2022-10-09T16:28:46.385Z,101744.84
2022-10-09T16:31:19.532Z,101748.00
2022-10-09T16:33:47.260Z,101748.03
2022-10-09T16:36:16.594Z,101747.66
2022-10-09T16:38:44.402Z,101749.84
2022-10-09T16:41:14.762Z,101743.44
2022-10-09T16:43:42.413Z,101744.75
2022-10-09T16:46:12.195Z,101742.28
2022-10-09T16:48:39.886Z,101740.31
2022-10-09T16:51:12.418Z,101736.63
2022-10-09T16:53:41.952Z,101733.97
2022-10-09T16:56:11.781Z,101742.13
2022-10-09T16:58:40.061Z,101740.94
2022-10-09T17:01:10.186Z,101737.69
2022-10-09T17:03:40.263Z,101745.50
2022-10-09T17:06:09.991Z,101739.84
2022-10-09T17:08:37.685Z,101742.59
2022-10-09T17:11:09.093Z,101733.00
2022-10-09T17:13:37.478Z,101735.53
2022-10-09T17:16:07.071Z,101730.03
2022-10-09T17:18:35.280Z,101734.81
2022-10-09T17:21:04.005Z,101738.50
2022-10-09T17:23:31.843Z,101738.84
2022-10-09T17:25:59.954Z,101741.06
2022-10-09T17:28:29.005Z,101733.34
2022-10-09T17:30:57.317Z,101736.19
2022-10-09T17:33:24.940Z,101724.03
2022-10-09T17:35:52.445Z,101725.13
2022-10-09T17:38:20.066Z,101728.44
2022-10-09T17:40:47.566Z,101728.13
2022-10-09T17:43:15.237Z,101730.00
2022-10-09T17:45:46.789Z,101732.22
2022-10-09T17:48:17.474Z,101725.41
2022-10-09T17:50:51.843Z,101722.41
2022-10-09T17:53:20.074Z,101719.72
2022-10-09T17:55:47.715Z,101712.28
2022-10-09T17:58:15.404Z,101716.53
2022-10-09T18:00:44.287Z,101713.03
2022-10-09T18:03:12.015Z,101712.31
2022-10-09T18:05:41.446Z,101707.09
2022-10-09T18:08:09.129Z,101704.06
2022-10-09T18:10:37.297Z,101704.81
2022-10-09T18:13:05.389Z,101688.06
2022-10-09T18:15:33.215Z,101696.47
2022-10-09T18:18:02.249Z,101689.63
2022-10-09T18:20:30.611Z,101683.13
2022-10-09T18:22:58.221Z,101693.03
2022-10-09T18:25:25.883Z,101684.53
2022-10-09T18:27:53.569Z,101688.72
2022-10-09T18:30:21.085Z,101689.22
2022-10-09T18:32:49.441Z,101680.56
2022-10-09T18:35:18.705Z,101685.41
2022-10-09T18:37:46.401Z,101679.88
2022-10-09T18:40:14.408Z,101674.34
2022-10-09T18:42:42.037Z,101677.25
2022-10-09T18:45:10.963Z,101672.25
2022-10-09T18:47:38.714Z,101672.66
2022-10-09T18:50:08.661Z,101671.59
2022-10-09T18:52:38.783Z,101667.94
2022-10-09T18:55:08.618Z,101670.91
2022-10-09T18:57:36.742Z,101664.59
2022-10-09T19:00:06.103Z,101667.34
2022-10-09T19:02:33.820Z,101666.19
2022-10-09T19:05:01.436Z,101655.91
2022-10-09T19:07:29.445Z,101661.84
2022-10-09T19:09:58.405Z,101660.38
2022-10-09T19:12:26.532Z,101661.28
2022-10-09T19:14:54.181Z,101668.56
2022-10-09T19:17:21.845Z,101654.31
2022-10-09T19:19:49.719Z,101657.72
2022-10-09T19:22:21.348Z,101655.13
2022-10-09T19:24:51.333Z,101642.47
2022-10-09T19:27:24.473Z,101648.50
2022-10-09T19:29:54.146Z,101645.44
2022-10-09T19:32:23.878Z,101645.81
2022-10-09T19:34:51.886Z,101643.53
2022-10-09T19:37:19.456Z,101638.38
2022-10-09T19:39:49.157Z,101645.19
2022-10-09T19:42:16.843Z,101640.75
2022-10-09T19:44:47.440Z,101641.09
2022-10-09T19:47:18.125Z,101633.97
2022-10-09T19:49:45.796Z,101633.31
2022-10-09T19:52:13.508Z,101627.75
2022-10-09T19:54:41.171Z,101630.22
2022-10-09T19:57:08.796Z,101625.53
2022-10-09T19:59:36.483Z,101617.69
2022-10-09T20:02:07.781Z,101616.97
2022-10-09T20:04:35.541Z,101619.78
2022-10-09T20:07:03.192Z,101615.13
2022-10-09T20:09:30.905Z,101615.78
2022-10-09T20:11:58.520Z,101612.44
2022-10-09T20:14:26.171Z,101613.41
2022-10-09T20:16:53.819Z,101611.88
2022-10-09T20:19:24.853Z,101607.97
2022-10-09T20:21:52.498Z,101594.34
2022-10-09T20:24:20.438Z,101590.50
2022-10-09T20:26:48.219Z,101589.03
2022-10-09T20:29:15.961Z,101590.72
2022-10-09T20:31:43.777Z,101587.38
2022-10-09T20:34:11.409Z,101594.09
2022-10-09T20:36:40.404Z,101598.16
2022-10-09T20:39:10.468Z,101588.47
2022-10-09T20:41:39.228Z,101594.66
2022-10-09T20:44:07.482Z,101597.91
2022-10-09T20:46:37.904Z,101591.84
2022-10-09T20:49:07.240Z,101593.47
2022-10-09T20:51:35.827Z,101586.06
2022-10-09T20:54:05.984Z,101576.56
2022-10-09T20:56:34.276Z,101577.91
2022-10-09T20:59:02.566Z,101576.31
2022-10-09T21:01:30.544Z,101571.84
2022-10-09T21:03:58.993Z,101562.56
2022-10-09T21:06:27.635Z,101551.78
2022-10-09T21:08:55.413Z,101551.91
2022-10-09T21:11:25.131Z,101550.66
2022-10-09T21:13:53.255Z,101554.38
2022-10-09T21:16:23.413Z,101556.28
2022-10-09T21:18:54.907Z,101553.84
2022-10-09T21:21:22.562Z,101552.78
2022-10-09T21:23:51.901Z,101554.13
2022-10-09T21:26:21.550Z,101548.81
2022-10-09T21:28:55.450Z,101535.56
2022-10-09T21:31:28.518Z,101544.84
2022-10-09T21:33:57.291Z,101547.78
2022-10-09T21:36:33.353Z,101536.69
2022-10-09T21:39:01.079Z,101538.81
2022-10-09T21:41:28.816Z,101530.88
2022-10-09T21:43:57.813Z,101534.31
2022-10-09T21:46:26.115Z,101531.69
2022-10-09T21:48:53.795Z,101528.00
2022-10-09T21:51:21.609Z,101526.19
2022-10-09T21:53:50.328Z,101524.38
2022-10-09T21:56:18.210Z,101525.97
2022-10-09T21:58:48.958Z,101527.84
2022-10-09T22:01:18.533Z,101523.09
2022-10-09T22:03:46.776Z,101524.94
2022-10-09T22:06:19.093Z,101517.25
2022-10-09T22:08:47.862Z,101515.16
2022-10-09T22:11:16.226Z,101517.84
2022-10-09T22:13:44.365Z,101514.41
2022-10-09T22:16:14.143Z,101519.19
2022-10-09T22:18:43.445Z,101513.59
2022-10-09T22:21:13.391Z,101506.72
2022-10-09T22:23:41.870Z,101509.66
2022-10-09T22:26:13.282Z,101510.19
2022-10-09T22:28:40.940Z,101503.56
2022-10-09T22:31:11.914Z,101502.81
2022-10-09T22:33:40.026Z,101503.34
2022-10-09T22:36:11.566Z,101500.47
2022-10-09T22:38:40.482Z,101494.13
2022-10-09T22:41:10.580Z,101502.09
2022-10-09T22:43:39.410Z,101497.88
2022-10-09T22:46:09.322Z,101492.56
2022-10-09T22:48:37.162Z,101494.41
2022-10-09T22:51:06.279Z,101488.06
2022-10-09T22:53:36.504Z,101491.25
2022-10-09T22:56:05.387Z,101485.69
2022-10-09T22:58:33.250Z,101478.56
2022-10-09T23:01:03.838Z,101480.97
2022-10-09T23:03:31.493Z,101483.38
2022-10-09T23:06:07.022Z,101479.69
2022-10-09T23:08:35.985Z,101484.47
2022-10-09T23:11:03.634Z,101472.28
2022-10-09T23:13:31.249Z,101469.91
2022-10-09T23:16:00.672Z,101466.72
2022-10-09T23:18:28.758Z,101454.31
2022-10-09T23:20:56.195Z,101461.47
2022-10-09T23:23:24.041Z,101460.97
2022-10-09T23:25:53.006Z,101462.56
2022-10-09T23:28:21.654Z,101457.28
2022-10-09T23:30:49.625Z,101452.00
2022-10-09T23:33:17.257Z,101453.63
2022-10-09T23:35:45.084Z,101456.78
2022-10-09T23:38:12.803Z,101456.56
2022-10-09T23:40:40.437Z,101459.44
2022-10-09T23:43:09.440Z,101449.94
2022-10-09T23:45:41.276Z,101452.84
2022-10-09T23:48:08.887Z,101447.03
2022-10-09T23:50:36.517Z,101441.22
2022-10-09T23:53:04.274Z,101434.88
2022-10-09T23:55:31.916Z,101438.34
2022-10-09T23:57:59.585Z,101437.81
